Time;durP1;ratioP1;P1;durP2;ratioP2;P2;SDS_P1;SDS_P2;PMS_P1;PMS_P2;Temp;Humidity;BMP_temperature;BMP_pressure;BME280_temperature;BME280_humidity;BME280_pressure;Samples;Min_cycle;Max_cycle;Signal;HPM_P1;HPM_P2
2021/11/26 00:01:49;;;;;;;2.63;1.95;;;;;;;-13.69;88.29;99182.50;5074034;28;20260;-63
2021/11/26 00:04:19;;;;;;;5.32;2.35;;;;;;;-13.80;88.94;99176.47;5073831;28;20143;-63
2021/11/26 00:06:46;;;;;;;1.98;1.77;;;;;;;-13.82;88.58;99178.94;5073798;28;20053;-63
2021/11/26 00:09:13;;;;;;;4.55;2.00;;;;;;;-13.74;87.67;99171.56;5074157;28;20471;-63
2021/11/26 00:11:40;;;;;;;3.60;2.13;;;;;;;-13.91;88.60;99184.63;5073707;28;20242;-64
2021/11/26 00:14:11;;;;;;;4.60;2.50;;;;;;;-14.04;90.00;99181.06;5074267;28;20049;-63
2021/11/26 00:16:41;;;;;;;3.78;2.30;;;;;;;-14.09;90.32;99166.81;5073391;28;20060;-64
2021/11/26 00:19:08;;;;;;;6.20;2.58;;;;;;;-13.92;90.00;99164.59;5073642;28;20049;-63
2021/11/26 00:21:37;;;;;;;3.45;1.75;;;;;;;-13.66;88.24;99162.56;5073140;28;20140;-63
2021/11/26 00:24:06;;;;;;;4.95;2.42;;;;;;;-13.68;88.32;99161.69;5073189;28;20075;-64
2021/11/26 00:26:33;;;;;;;5.88;2.53;;;;;;;-13.80;89.11;99164.81;5073265;28;20135;-63
2021/11/26 00:29:00;;;;;;;3.85;2.10;;;;;;;-13.89;89.70;99158.00;5073258;28;20152;-64
2021/11/26 00:31:27;;;;;;;5.13;2.80;;;;;;;-13.84;89.14;99160.59;5073626;28;20051;-63
2021/11/26 00:33:56;;;;;;;4.82;2.20;;;;;;;-13.83;89.65;99159.75;5073377;28;20502;-63
2021/11/26 00:36:23;;;;;;;3.60;2.35;;;;;;;-13.76;89.80;99158.22;5073363;28;20052;-63
2021/11/26 00:38:50;;;;;;;4.45;2.97;;;;;;;-13.55;88.36;99146.06;5073266;28;20117;-63
2021/11/26 00:41:17;;;;;;;;;;;;;;;-13.69;89.08;99152.47;5073659;28;20131;-63
2021/11/26 00:43:44;;;;;;;3.22;2.35;;;;;;;-13.68;88.46;99150.00;5073176;28;20022;-64
2021/11/26 00:46:12;;;;;;;2.70;2.45;;;;;;;-13.59;88.39;99154.31;5073219;28;20127;-63
2021/11/26 00:48:39;;;;;;;5.15;2.22;;;;;;;-13.72;88.75;99147.44;5072842;28;20084;-64
2021/11/26 00:51:08;;;;;;;3.42;2.33;;;;;;;-13.65;89.43;99146.72;5072923;28;20143;-63
2021/11/26 00:53:35;;;;;;;4.55;2.53;;;;;;;-13.71;89.22;99141.63;5072599;28;20135;-63
2021/11/26 00:56:02;;;;;;;3.92;2.35;;;;;;;-13.83;89.68;99149.75;5073005;28;20049;-63
2021/11/26 00:58:29;;;;;;;2.92;2.28;;;;;;;-13.83;89.40;99152.25;5072579;28;20087;-64
2021/11/26 01:00:56;;;;;;;4.07;2.15;;;;;;;-13.82;89.69;99144.81;5072995;28;20048;-63
2021/11/26 01:03:23;;;;;;;;;;;;;;;-13.78;89.65;99149.84;5072872;28;20053;-63
2021/11/26 01:05:51;;;;;;;3.28;1.95;;;;;;;-13.79;90.14;99143.13;5072763;28;20398;-63
2021/11/26 01:08:20;;;;;;;4.82;2.20;;;;;;;-13.71;89.60;99144.97;5072363;28;20040;-63
2021/11/26 01:10:49;;;;;;;3.03;2.22;;;;;;;-13.63;89.29;99140.94;5072536;28;20066;-63
2021/11/26 01:13:16;;;;;;;3.63;2.17;;;;;;;-13.57;89.48;99140.19;5072484;28;20143;-63
2021/11/26 01:15:43;;;;;;;;;;;;;;;-13.32;88.18;99130.56;5073103;28;20139;-63
2021/11/26 01:18:10;;;;;;;;;;;;;;;-13.29;87.75;99131.44;5072804;28;19970;-63
2021/11/26 01:20:39;;;;;;;3.47;2.13;;;;;;;-13.35;87.72;99133.84;5072522;28;19962;-63
2021/11/26 01:23:07;;;;;;;3.78;2.00;;;;;;;-13.40;87.58;99135.44;5072355;28;20056;-63
2021/11/26 01:25:36;;;;;;;3.72;2.30;;;;;;;-13.32;87.83;99128.06;5072138;28;20083;-64
2021/11/26 01:28:05;;;;;;;7.07;2.50;;;;;;;-13.42;88.15;99132.06;5072680;28;20049;-63
2021/11/26 01:30:34;;;;;;;3.35;2.20;;;;;;;-13.40;88.15;99132.94;5072309;28;20060;-63
2021/11/26 01:33:03;;;;;;;3.13;2.03;;;;;;;-13.40;88.38;99131.28;5072464;28;20056;-63
2021/11/26 01:35:31;;;;;;;2.80;2.50;;;;;;;-13.36;88.32;99137.16;5071897;28;20090;-63
2021/11/26 01:37:58;;;;;;;2.63;2.35;;;;;;;-13.48;89.03;99134.50;5072211;28;20083;-63
2021/11/26 01:40:25;;;;;;;3.50;2.17;;;;;;;-13.41;88.94;99137.13;5071912;28;20072;-63
2021/11/26 01:42:56;;;;;;;;;;;;;;;-13.24;88.18;99131.47;5072465;28;20139;-64
2021/11/26 01:45:23;;;;;;;2.17;1.88;;;;;;;-13.45;87.75;99132.88;5072345;28;20341;-63
2021/11/26 01:47:50;;;;;;;2.63;2.05;;;;;;;-13.60;89.63;99130.97;5072356;28;20048;-64
2021/11/26 01:50:19;;;;;;;2.85;2.08;;;;;;;-13.50;89.79;99138.63;5072635;28;20122;-63
2021/11/26 01:52:46;;;;;;;3.00;2.05;;;;;;;-13.20;88.99;99139.06;5072159;28;20479;-63
2021/11/26 01:55:15;;;;;;;3.50;2.17;;;;;;;-13.14;87.89;99137.47;5071862;28;20498;-63
2021/11/26 01:57:44;;;;;;;5.15;2.58;;;;;;;-13.34;88.35;99138.03;5072099;28;20070;-64
2021/11/26 02:00:17;;;;;;;3.72;2.65;;;;;;;-13.43;89.39;99135.41;5071946;28;20080;-63
2021/11/26 02:02:44;;;;;;;3.78;2.20;;;;;;;-13.10;89.26;99139.16;5071961;28;20127;-63
2021/11/26 02:05:11;;;;;;;4.38;2.40;;;;;;;-13.04;88.41;99144.28;5071932;28;20483;-63
2021/11/26 02:07:38;;;;;;;5.80;2.50;;;;;;;-12.82;87.75;99130.38;5072021;28;20221;-63
2021/11/26 02:10:06;;;;;;;2.17;2.00;;;;;;;-12.66;87.14;99133.91;5071875;28;20522;-63
2021/11/26 02:12:34;;;;;;;5.68;2.00;;;;;;;-12.67;86.72;99129.72;5071754;28;20405;-63
2021/11/26 02:15:00;;;;;;;3.13;2.10;;;;;;;-12.78;86.59;99122.91;5071716;28;20150;-63
2021/11/26 02:17:29;;;;;;;5.50;2.58;;;;;;;-13.04;87.83;99111.72;5071708;28;20048;-63
2021/11/26 02:19:58;;;;;;;2.70;1.70;;;;;;;-12.80;87.17;99113.69;5071886;28;20506;-63
2021/11/26 02:22:26;;;;;;;2.67;2.15;;;;;;;-12.72;86.66;99112.97;5071702;28;20505;-63
2021/11/26 02:24:54;;;;;;;5.20;2.65;;;;;;;-13.11;88.39;99113.28;5071747;28;20492;-63
2021/11/26 02:27:21;;;;;;;;;;;;;;;-13.10;88.56;99110.00;5072130;28;20084;-63
2021/11/26 02:29:54;;;;;;;4.35;2.53;;;;;;;-13.07;88.09;99111.66;5071589;28;19935;-63
2021/11/26 02:32:21;;;;;;;1.88;1.73;;;;;;;-12.84;88.02;99107.81;5071667;28;20068;-63
2021/11/26 02:34:48;;;;;;;;;;;;;;;-13.07;88.57;99115.03;5072372;28;20446;-63
2021/11/26 02:37:16;;;;;;;1.55;1.45;;;;;;;-13.08;88.76;99113.34;5071962;28;19927;-63
2021/11/26 02:39:43;;;;;;;3.45;2.38;;;;;;;-13.19;88.92;99123.22;5071787;28;20083;-64
2021/11/26 02:42:10;;;;;;;2.90;2.10;;;;;;;-13.10;89.28;99119.13;5071998;28;20083;-63
2021/11/26 02:44:37;;;;;;;2.45;1.73;;;;;;;-13.02;88.94;99117.56;5071781;28;20049;-63
2021/11/26 02:47:04;;;;;;;4.32;2.30;;;;;;;-12.98;89.57;99120.16;5074695;28;20080;-63
2021/11/26 02:49:31;;;;;;;4.57;2.40;;;;;;;-12.89;89.56;99119.44;5075290;28;20147;-63
2021/11/26 02:51:58;;;;;;;4.65;2.38;;;;;;;-12.88;88.53;99123.63;5075478;28;20045;-63
2021/11/26 02:54:27;;;;;;;3.42;2.45;;;;;;;-12.88;88.80;99122.78;5074876;28;20147;-63
2021/11/26 02:56:54;;;;;;;5.18;2.30;;;;;;;-13.02;89.78;99120.94;5075494;28;20102;-63
2021/11/26 02:59:21;;;;;;;3.40;2.05;;;;;;;-13.03;90.21;99114.22;5075252;28;20053;-63
2021/11/26 03:01:47;;;;;;;3.67;2.25;;;;;;;-12.81;89.96;99122.06;5075434;28;20048;-63
2021/11/26 03:04:14;;;;;;;8.32;2.55;;;;;;;-12.78;88.61;99122.91;5075222;28;20131;-63
2021/11/26 03:06:41;;;;;;;3.70;1.85;;;;;;;-12.51;87.83;99127.44;5075067;28;20156;-63
2021/11/26 03:09:09;;;;;;;2.17;1.92;;;;;;;-12.42;87.34;99133.38;5075222;28;20072;-64
2021/11/26 03:11:37;;;;;;;4.05;2.50;;;;;;;-12.72;88.36;99132.16;5074640;28;20102;-63
2021/11/26 03:14:04;;;;;;;2.28;1.77;;;;;;;-12.57;88.65;99129.84;5075088;28;20053;-63
2021/11/26 03:16:31;;;;;;;4.53;2.55;;;;;;;-12.49;88.17;99127.44;5074429;28;20151;-63
2021/11/26 03:18:58;;;;;;;5.32;2.15;;;;;;;-12.44;88.25;99120.81;5074740;28;20083;-63
2021/11/26 03:21:25;;;;;;;2.83;2.00;;;;;;;-12.61;88.90;99117.25;5074493;28;20127;-63
2021/11/26 03:23:52;;;;;;;4.60;2.63;;;;;;;-12.70;88.90;99120.50;5074535;28;20499;-63
2021/11/26 03:26:19;;;;;;;5.43;2.55;;;;;;;-12.67;89.58;99119.69;5074401;28;20510;-63
2021/11/26 03:28:48;;;;;;;5.13;2.22;;;;;;;-12.73;89.96;99126.31;5074848;28;20135;-63
2021/11/26 03:31:14;;;;;;;3.53;2.30;;;;;;;-12.76;89.98;99120.44;5074485;28;20055;-63
2021/11/26 03:33:41;;;;;;;4.95;2.20;;;;;;;-12.87;90.77;99120.28;5074266;28;20139;-63
2021/11/26 03:36:08;;;;;;;7.82;2.00;;;;;;;-12.65;90.48;99118.06;5074334;28;20468;-63
2021/11/26 03:38:35;;;;;;;3.67;2.00;;;;;;;-12.72;90.26;99117.97;5074371;28;20127;-63
2021/11/26 03:41:02;;;;;;;3.05;2.17;;;;;;;-12.68;90.76;99113.03;5074329;28;20585;-63
2021/11/26 03:43:29;;;;;;;3.70;1.98;;;;;;;-12.64;90.10;99117.22;5074379;28;20131;-63
2021/11/26 03:45:58;;;;;;;3.83;2.20;;;;;;;-12.60;90.49;99121.47;5074241;28;20071;-63
2021/11/26 03:48:25;;;;;;;5.18;2.25;;;;;;;-12.54;90.12;99122.34;5074132;28;20140;-63
2021/11/26 03:50:52;;;;;;;3.97;2.20;;;;;;;-12.65;90.54;99118.91;5074470;28;20131;-63
2021/11/26 03:53:19;;;;;;;3.38;2.17;;;;;;;-12.53;90.31;99116.53;5073742;28;20140;-63
2021/11/26 03:55:46;;;;;;;5.45;2.13;;;;;;;-12.38;89.77;99125.91;5074101;28;20131;-64
2021/11/26 03:58:13;;;;;;;3.58;2.10;;;;;;;-12.20;88.87;99127.75;5073919;28;20139;-64
2021/11/26 04:00:40;;;;;;;4.07;1.85;;;;;;;-12.35;89.55;99117.56;5073867;28;20183;-63
2021/11/26 04:03:08;;;;;;;;;;;;;;;-12.22;89.49;99129.41;5074400;28;20044;-63
2021/11/26 04:05:35;;;;;;;6.43;2.22;;;;;;;-12.26;89.43;99126.84;5073654;28;20352;-63
2021/11/26 04:08:02;;;;;;;5.05;2.47;;;;;;;-12.12;89.49;99123.66;5073881;28;20501;-63
2021/11/26 04:10:30;;;;;;;2.90;1.83;;;;;;;-12.24;89.76;99127.72;5073858;28;20052;-63
2021/11/26 04:12:57;;;;;;;;;;;;;;;-12.17;89.70;99122.78;5074086;28;20076;-63
2021/11/26 04:15:24;;;;;;;2.28;1.98;;;;;;;-11.97;88.80;99120.47;5073623;28;19920;-63
2021/11/26 04:17:52;;;;;;;3.92;2.00;;;;;;;-12.03;88.48;99120.38;5074227;28;20136;-63
2021/11/26 04:20:21;;;;;;;3.30;2.20;;;;;;;-12.20;89.53;99121.88;5073439;28;20044;-63
2021/11/26 04:22:48;;;;;;;2.80;1.92;;;;;;;-12.13;89.30;99116.94;5073851;28;20083;-63
2021/11/26 04:25:18;;;;;;;2.58;1.88;;;;;;;-12.25;89.93;99121.88;5073518;28;20048;-63
2021/11/26 04:27:45;;;;;;;2.53;2.00;;;;;;;-11.82;89.15;99128.91;5073449;28;20151;-63
2021/11/26 04:30:13;;;;;;;3.58;2.10;;;;;;;-11.70;88.81;99126.50;5073438;28;20083;-63
2021/11/26 04:32:41;;;;;;;3.08;2.15;;;;;;;-11.81;88.35;99121.41;5072969;28;20044;-63
2021/11/26 04:35:11;;;;;;;4.50;2.35;;;;;;;-11.93;89.37;99123.84;5073290;28;20143;-63
2021/11/26 04:37:40;;;;;;;3.65;2.30;;;;;;;-12.00;89.41;99132.13;5073348;28;20141;-63
2021/11/26 04:40:09;;;;;;;3.88;2.38;;;;;;;-12.16;90.30;99123.59;5073108;28;20053;-63
2021/11/26 04:42:37;;;;;;;4.97;2.20;;;;;;;-12.24;90.63;99132.72;5073264;28;20067;-64
2021/11/26 04:45:05;;;;;;;4.25;2.38;;;;;;;-12.29;91.03;99128.50;5073293;28;20140;-64
2021/11/26 04:47:33;;;;;;;5.85;2.25;;;;;;;-12.33;91.83;99126.78;5072807;28;20593;-63
2021/11/26 04:50:00;;;;;;;;;;;;;;;-12.31;91.44;99116.75;5073662;28;20048;-64
2021/11/26 04:52:26;;;;;;;;;;;;;;;-12.27;91.69;99123.50;5073373;28;20028;-63
2021/11/26 04:54:55;;;;;;;1.60;1.38;;;;;;;-12.26;91.42;99111.81;5072999;28;20441;-63
2021/11/26 04:57:22;;;;;;;2.38;1.70;;;;;;;-12.28;91.43;99114.28;5072536;28;20076;-63
2021/11/26 04:59:49;;;;;;;3.85;2.30;;;;;;;-12.21;91.45;99115.19;5072854;28;20143;-64
2021/11/26 05:02:16;;;;;;;3.35;2.00;;;;;;;-12.02;90.86;99116.22;5073036;28;20123;-63
2021/11/26 05:04:43;;;;;;;3.92;2.17;;;;;;;-11.90;90.56;99117.16;5072851;28;20056;-63
2021/11/26 05:07:10;;;;;;;3.92;2.38;;;;;;;-12.02;91.21;99117.06;5072998;28;20076;-64
2021/11/26 05:09:36;;;;;;;3.42;2.05;;;;;;;-11.96;90.79;99123.81;5071901;28;20483;-63
2021/11/26 05:12:06;;;;;;;3.72;1.98;;;;;;;-11.77;90.73;99125.59;5072525;28;20582;-63
2021/11/26 05:14:34;;;;;;;4.93;2.38;;;;;;;-11.66;89.88;99126.56;5072083;28;20491;-63
2021/11/26 05:17:01;;;;;;;3.55;1.88;;;;;;;-11.94;91.27;99129.69;5072570;28;20055;-63
2021/11/26 05:19:29;;;;;;;3.25;2.05;;;;;;;-12.08;90.94;99132.03;5072572;28;20052;-63
2021/11/26 05:21:56;;;;;;;3.70;2.28;;;;;;;-12.18;91.59;99131.09;5072761;28;20061;-63
2021/11/26 05:24:23;;;;;;;3.50;2.28;;;;;;;-12.25;91.77;99129.38;5072017;28;20058;-64
2021/11/26 05:26:50;;;;;;;2.97;1.95;;;;;;;-12.21;92.19;99130.25;5072404;28;20135;-64
2021/11/26 05:29:18;;;;;;;3.40;2.08;;;;;;;-12.10;91.81;99126.16;5072318;28;20083;-64
2021/11/26 05:31:45;;;;;;;3.03;1.92;;;;;;;-12.19;91.98;99129.44;5072231;28;20080;-63
2021/11/26 05:34:12;;;;;;;4.93;2.83;;;;;;;-12.02;91.50;99126.25;5072477;28;20052;-63
2021/11/26 05:36:39;;;;;;;4.43;2.50;;;;;;;-11.87;91.33;99139.78;5072326;28;20076;-63
2021/11/26 05:39:06;;;;;;;;;;;;;;;-11.96;91.88;99144.72;5072873;28;20462;-63
2021/11/26 05:41:33;;;;;;;2.88;2.05;;;;;;;-11.96;91.57;99146.38;5071919;28;19920;-64
2021/11/26 05:44:01;;;;;;;3.80;2.72;;;;;;;-11.97;91.91;99144.69;5072328;28;20059;-63
2021/11/26 05:46:29;;;;;;;;;;;;;;;-11.96;91.73;99149.72;5072636;28;20147;-63
2021/11/26 05:48:56;;;;;;;7.45;3.92;;;;;;;-11.95;91.95;99146.38;5072368;28;19920;-63
2021/11/26 05:51:23;;;;;;;3.22;2.25;;;;;;;-11.92;91.45;99150.59;5072011;28;20075;-64
2021/11/26 05:53:50;;;;;;;;;;;;;;;-11.86;91.36;99148.97;5072590;28;20163;-63
2021/11/26 05:56:17;;;;;;;3.65;2.45;;;;;;;-11.87;91.56;99151.47;5072334;28;19927;-63
2021/11/26 05:58:44;;;;;;;5.78;3.25;;;;;;;-11.95;91.79;99156.41;5072284;28;20159;-63
2021/11/26 06:01:11;;;;;;;7.90;2.08;;;;;;;-11.87;91.59;99156.50;5072105;28;20091;-64
2021/11/26 06:03:39;;;;;;;3.35;2.28;;;;;;;-11.87;91.95;99162.38;5072137;28;20159;-65
2021/11/26 06:06:06;;;;;;;3.50;2.70;;;;;;;-11.91;91.90;99154.78;5072130;28;20053;-65
2021/11/26 06:08:33;;;;;;;3.40;2.10;;;;;;;-11.88;92.04;99155.66;5071954;28;20131;-65
2021/11/26 06:11:00;;;;;;;4.57;1.88;;;;;;;-11.81;90.95;99158.22;5072178;28;20071;-67
2021/11/26 06:13:27;;;;;;;3.97;2.63;;;;;;;-11.79;91.77;99154.88;5071924;28;20041;-67
2021/11/26 06:15:54;;;;;;;2.90;1.90;;;;;;;-11.81;91.76;99155.69;5071711;28;20193;-67
2021/11/26 06:18:21;;;;;;;3.50;2.22;;;;;;;-11.77;91.75;99153.22;5071595;28;20052;-67
2021/11/26 06:20:50;;;;;;;3.53;2.50;;;;;;;-11.89;92.21;99158.16;5073106;28;20136;-67
2021/11/26 06:23:17;;;;;;;6.03;2.40;;;;;;;-11.80;91.58;99154.84;5075996;28;20136;-66
2021/11/26 06:25:44;;;;;;;4.90;2.50;;;;;;;-11.78;91.83;99159.06;5075945;28;20098;-67
2021/11/26 06:28:11;;;;;;;4.82;2.67;;;;;;;-11.91;91.97;99164.81;5076105;28;20105;-67
2021/11/26 06:30:38;;;;;;;4.78;2.83;;;;;;;-11.73;92.03;99164.97;5075735;28;20167;-67
2021/11/26 06:33:05;;;;;;;3.00;2.15;;;;;;;-11.63;91.64;99173.41;5075760;28;20083;-67
2021/11/26 06:35:32;;;;;;;3.28;2.60;;;;;;;-11.63;90.85;99176.78;5075587;28;20088;-67
2021/11/26 06:38:01;;;;;;;3.67;2.20;;;;;;;-11.66;90.60;99181.75;5076030;28;20135;-65
2021/11/26 06:40:28;;;;;;;3.58;2.13;;;;;;;-11.74;90.82;99178.31;5075141;28;20080;-65
2021/11/26 06:42:56;;;;;;;5.38;2.75;;;;;;;-11.67;91.02;99180.06;5075850;28;20044;-64
2021/11/26 06:45:23;;;;;;;4.35;2.85;;;;;;;-11.82;90.91;99179.09;5075085;28;20080;-65
2021/11/26 06:47:50;;;;;;;3.67;2.50;;;;;;;-11.93;91.34;99174.00;5075754;28;20076;-65
2021/11/26 06:50:19;;;;;;;5.18;3.15;;;;;;;-11.75;91.62;99179.16;5075651;28;20049;-64
2021/11/26 06:52:47;;;;;;;7.88;4.55;;;;;;;-11.78;91.00;99176.63;5075509;28;20045;-65
2021/11/26 06:55:16;;;;;;;7.93;4.15;;;;;;;-11.76;90.91;99186.66;5075172;28;20463;-68
2021/11/26 06:57:43;;;;;;;6.45;3.75;;;;;;;-11.93;91.32;99181.53;5075455;28;20131;-68
2021/11/26 07:00:13;;;;;;;7.95;4.30;;;;;;;-11.98;92.08;99183.16;5075444;28;20072;-67
2021/11/26 07:02:40;;;;;;;7.88;3.97;;;;;;;-11.91;92.30;99179.88;5074965;28;20072;-68
2021/11/26 07:05:09;;;;;;;8.75;4.38;;;;;;;-11.94;92.01;99173.16;5074970;28;20052;-68
2021/11/26 07:07:36;;;;;;;8.18;3.80;;;;;;;-12.00;91.94;99177.25;5074764;28;20057;-68
2021/11/26 07:10:04;;;;;;;6.15;3.60;;;;;;;-12.08;91.73;99175.50;5074921;28;20098;-68
2021/11/26 07:12:32;;;;;;;6.72;3.55;;;;;;;-11.92;91.83;99190.72;5074582;28;20499;-68
2021/11/26 07:14:59;;;;;;;7.43;3.17;;;;;;;-11.86;91.70;99193.31;5074653;28;20262;-67
2021/11/26 07:17:26;;;;;;;4.75;2.88;;;;;;;-11.95;91.55;99194.03;5073368;28;20593;-68
2021/11/26 07:19:54;;;;;;;5.03;3.00;;;;;;;-11.86;91.47;99188.28;5073441;28;20152;-68
2021/11/26 07:22:21;;;;;;;7.53;3.42;;;;;;;-11.85;91.78;99199.97;5073591;28;20249;-68
2021/11/26 07:24:48;;;;;;;3.50;2.45;;;;;;;-11.98;91.65;99201.53;5073913;28;20498;-67
2021/11/26 07:27:15;;;;;;;5.80;3.28;;;;;;;-12.04;91.97;99208.16;5073721;28;20080;-68
2021/11/26 07:29:45;;;;;;;4.22;2.60;;;;;;;-12.11;92.49;99214.78;5073733;28;20451;-68
2021/11/26 07:32:13;;;;;;;5.72;2.67;;;;;;;-12.22;92.63;99219.66;5073351;28;20421;-68
2021/11/26 07:34:41;;;;;;;6.45;3.05;;;;;;;-12.25;92.63;99218.75;5073069;28;20502;-68
2021/11/26 07:37:09;;;;;;;5.40;3.38;;;;;;;-12.26;93.33;99219.59;5073614;28;20123;-68
2021/11/26 07:39:37;;;;;;;4.50;2.80;;;;;;;-12.32;93.33;99223.72;5073134;28;20048;-67
2021/11/26 07:42:06;;;;;;;4.35;2.50;;;;;;;-12.32;93.28;99222.88;5073102;28;20441;-68
2021/11/26 07:44:35;;;;;;;4.70;2.78;;;;;;;-12.28;93.74;99229.59;5072975;28;20597;-67
2021/11/26 07:47:05;;;;;;;5.18;2.55;;;;;;;-12.04;93.13;99236.59;5073224;28;20521;-67
2021/11/26 07:49:33;;;;;;;4.28;2.80;;;;;;;-11.96;92.47;99231.66;5073031;28;20048;-68
2021/11/26 07:52:01;;;;;;;5.53;2.88;;;;;;;-11.88;91.27;99238.44;5072984;28;20079;-68
2021/11/26 07:54:29;;;;;;;5.95;3.25;;;;;;;-11.95;92.42;99231.66;5072994;28;20044;-68
2021/11/26 07:56:55;;;;;;;;;;;;;;;-11.96;92.16;99239.19;5073514;28;20136;-67
2021/11/26 07:59:23;;;;;;;6.75;3.92;;;;;;;-11.83;91.75;99238.47;5072857;28;19942;-67
2021/11/26 08:01:51;;;;;;;5.40;3.40;;;;;;;-11.63;90.92;99231.97;5072919;28;20044;-67
2021/11/26 08:04:19;;;;;;;6.45;3.50;;;;;;;-11.69;91.36;99241.94;5072873;28;20561;-67
2021/11/26 08:06:47;;;;;;;6.43;3.83;;;;;;;-11.72;91.41;99241.91;5073193;28;20076;-68
2021/11/26 08:09:15;;;;;;;6.72;3.47;;;;;;;-11.68;91.32;99240.28;5073168;28;20052;-68
2021/11/26 08:11:42;;;;;;;4.82;3.20;;;;;;;-11.56;91.30;99237.03;5072779;28;20072;-67
2021/11/26 08:14:09;;;;;;;;;;;;;;;-11.49;90.21;99238.78;5073146;28;20044;-68
2021/11/26 08:16:37;;;;;;;7.60;4.53;;;;;;;-11.32;91.01;99249.00;5023619;28;1427490;-68
2021/11/26 08:19:06;;;;;;;6.13;3.90;;;;;;;-11.38;90.64;99239.72;5073574;28;20317;-67
2021/11/26 08:21:35;;;;;;;5.35;3.22;;;;;;;-11.38;90.71;99248.94;5073300;28;20474;-68
2021/11/26 08:24:03;;;;;;;9.88;3.20;;;;;;;-11.23;90.36;99251.56;5073544;28;20507;-68
2021/11/26 08:26:30;;;;;;;7.10;3.65;;;;;;;-11.36;90.66;99245.59;5073486;28;20127;-68
2021/11/26 08:28:57;;;;;;;7.15;3.53;;;;;;;-11.45;91.35;99250.56;5073504;28;20414;-67
2021/11/26 08:31:24;;;;;;;7.35;3.35;;;;;;;-11.48;91.24;99245.47;5073503;28;20072;-68
2021/11/26 08:33:51;;;;;;;8.77;3.17;;;;;;;-11.40;91.77;99243.91;5073598;28;20079;-68
2021/11/26 08:36:18;;;;;;;;;;;;;;;-11.29;90.33;99247.34;5073949;28;20144;-68
2021/11/26 08:38:47;;;;;;;4.18;3.10;;;;;;;-11.27;91.18;99248.22;5073263;28;20015;-68
2021/11/26 08:41:14;;;;;;;4.30;3.08;;;;;;;-11.28;90.82;99245.66;5073232;28;20102;-67
2021/11/26 08:43:42;;;;;;;6.15;2.85;;;;;;;-11.29;91.16;99249.84;5072386;28;20131;-68
2021/11/26 08:46:09;;;;;;;7.05;3.72;;;;;;;-11.36;91.28;99254.81;5073084;28;20051;-67
2021/11/26 08:48:36;;;;;;;5.20;2.95;;;;;;;-11.25;91.05;99255.75;5072840;28;20076;-67
2021/11/26 08:51:03;;;;;;;4.63;2.75;;;;;;;-11.31;91.07;99253.19;5072995;28;20502;-68
2021/11/26 08:53:30;;;;;;;7.60;3.90;;;;;;;-11.24;90.83;99258.28;5072604;28;20132;-67
2021/11/26 08:55:59;;;;;;;5.97;3.38;;;;;;;-11.05;90.47;99265.97;5073218;28;20072;-68
2021/11/26 08:58:26;;;;;;;6.05;3.35;;;;;;;-11.07;90.06;99265.97;5072972;28;20084;-68
2021/11/26 09:00:53;;;;;;;5.22;3.55;;;;;;;-11.02;90.24;99264.34;5072780;28;20048;-68
2021/11/26 09:03:20;;;;;;;4.53;3.13;;;;;;;-11.09;90.54;99260.09;5072563;28;20127;-68
2021/11/26 09:05:47;;;;;;;6.20;3.40;;;;;;;-11.02;90.30;99261.81;5072985;28;20136;-68
2021/11/26 09:08:17;;;;;;;5.30;3.50;;;;;;;-10.96;90.44;99261.84;5072657;28;20080;-68
2021/11/26 09:10:46;;;;;;;5.28;3.65;;;;;;;-10.85;89.93;99274.50;5073096;28;20060;-67
2021/11/26 09:13:16;;;;;;;5.63;3.03;;;;;;;-10.69;89.10;99265.38;5072536;28;20135;-68
2021/11/26 09:15:43;;;;;;;4.90;3.00;;;;;;;-10.63;89.38;99265.44;5072258;28;20582;-68
2021/11/26 09:18:11;;;;;;;4.88;2.97;;;;;;;-10.60;89.59;99267.97;5072447;28;20054;-68
2021/11/26 09:20:39;;;;;;;4.68;3.38;;;;;;;-10.66;89.73;99267.94;5072265;28;20329;-67
2021/11/26 09:23:08;;;;;;;4.40;2.65;;;;;;;-10.66;89.41;99267.94;5072510;28;20053;-68
2021/11/26 09:25:36;;;;;;;5.68;2.85;;;;;;;-10.60;90.03;99264.63;5072022;28;20143;-68
2021/11/26 09:28:04;;;;;;;3.63;2.38;;;;;;;-10.63;89.87;99262.09;5072626;28;20076;-68
2021/11/26 09:30:33;;;;;;;6.38;2.88;;;;;;;-10.68;90.60;99263.75;5072113;28;20087;-68
2021/11/26 09:33:01;;;;;;;4.20;2.65;;;;;;;-10.75;90.00;99265.34;5072569;28;20131;-67
2021/11/26 09:35:30;;;;;;;6.18;2.97;;;;;;;-10.77;90.68;99267.84;5072024;28;20075;-67
2021/11/26 09:37:59;;;;;;;4.75;2.90;;;;;;;-10.66;91.02;99267.09;5072446;28;20049;-68
2021/11/26 09:40:26;;;;;;;4.82;3.22;;;;;;;-10.67;91.01;99272.94;5072462;28;20061;-67
2021/11/26 09:42:53;;;;;;;8.73;3.78;;;;;;;-10.67;90.64;99276.31;5072436;28;20136;-68
2021/11/26 09:45:25;;;;;;;9.65;4.65;;;;;;;-10.61;90.69;99275.50;5072126;28;20099;-68
2021/11/26 09:47:54;;;;;;;10.00;4.93;;;;;;;-10.57;90.59;99279.72;5072036;28;20483;-67
2021/11/26 09:50:24;;;;;;;8.07;4.93;;;;;;;-10.52;90.17;99280.59;5072057;28;20049;-68
2021/11/26 09:52:52;;;;;;;8.68;4.47;;;;;;;-10.43;90.01;99275.59;5071975;28;20487;-68
2021/11/26 09:55:19;;;;;;;7.68;4.43;;;;;;;-10.48;89.75;99286.47;5071602;28;20137;-68
2021/11/26 09:57:47;;;;;;;4.97;3.60;;;;;;;-10.47;89.95;99283.97;5072246;28;20059;-68
2021/11/26 10:00:17;;;;;;;6.90;3.97;;;;;;;-10.42;90.30;99286.53;5071884;28;20491;-67
2021/11/26 10:02:53;;;;;;;5.43;3.35;;;;;;;-10.38;90.34;99288.22;5072352;28;20048;-68
2021/11/26 10:05:21;;;;;;;6.38;2.72;;;;;;;-10.47;90.50;99291.53;5071953;28;20055;-68
2021/11/26 10:07:50;;;;;;;5.88;3.00;;;;;;;-10.55;90.90;99288.13;5071924;28;20080;-69
2021/11/26 10:10:21;;;;;;;9.00;3.20;;;;;;;-10.60;90.86;99294.78;5072076;28;20058;-69
2021/11/26 10:12:58;;;;;;;6.97;3.33;;;;;;;-10.59;91.59;99301.50;5071965;28;20139;-68
2021/11/26 10:15:35;;;;;;;9.13;3.45;;;;;;;-10.61;91.61;99298.13;5071370;28;20103;-68
2021/11/26 10:18:14;;;;;;;6.75;3.33;;;;;;;-10.56;91.02;99304.88;5071848;28;20136;-68
2021/11/26 10:20:55;;;;;;;6.95;3.42;;;;;;;-10.51;91.47;99309.91;5071532;28;20143;-69
2021/11/26 10:23:25;;;;;;;6.90;3.65;;;;;;;-10.46;91.05;99305.75;5071563;28;20049;-69
2021/11/26 10:25:52;;;;;;;5.05;3.08;;;;;;;-10.47;90.79;99309.13;5071841;28;20499;-69
2021/11/26 10:28:19;;;;;;;6.90;3.65;;;;;;;-10.44;90.98;99314.16;5071585;28;20086;-68
2021/11/26 10:30:49;;;;;;;5.20;2.92;;;;;;;-10.40;90.99;99320.91;5071939;28;20075;-68
2021/11/26 10:33:22;;;;;;;3.88;2.65;;;;;;;-10.39;90.83;99317.53;5071686;28;20060;-69
2021/11/26 10:35:51;;;;;;;3.83;2.42;;;;;;;-10.35;91.29;99320.91;5071962;28;20139;-68
2021/11/26 10:38:21;;;;;;;4.35;2.47;;;;;;;-10.33;91.15;99316.75;5071391;28;20503;-68
2021/11/26 10:40:52;;;;;;;4.18;2.50;;;;;;;-10.29;91.05;99322.66;5071754;28;20525;-69
2021/11/26 10:43:23;;;;;;;2.70;2.10;;;;;;;-10.26;91.25;99325.16;5071281;28;20059;-69
2021/11/26 10:49:06;;;;;;;4.35;2.60;;;;;;;-10.12;91.79;99326.03;5071308;28;20048;-68
2021/11/26 10:51:56;;;;;;;4.63;2.60;;;;;;;-10.09;91.44;99326.09;5071554;28;20137;-68
2021/11/26 11:00:10;;;;;;;4.35;2.60;;;;;;;-10.03;90.81;99336.19;5071853;28;20045;-69
2021/11/26 11:02:39;;;;;;;5.05;3.03;;;;;;;-10.04;91.73;99339.53;5071352;28;20057;-68
2021/11/26 11:05:12;;;;;;;5.68;2.70;;;;;;;-10.01;91.21;99339.53;5071711;28;20056;-68
2021/11/26 11:07:41;;;;;;;4.63;2.63;;;;;;;-10.02;91.84;99342.03;5073227;28;20135;-68
2021/11/26 11:10:09;;;;;;;6.53;3.58;;;;;;;-10.01;92.21;99347.09;5075390;28;20132;-69
2021/11/26 11:12:39;;;;;;;6.22;3.10;;;;;;;-9.91;91.22;99343.78;5074847;28;20044;-68
2021/11/26 11:15:08;;;;;;;5.72;2.85;;;;;;;-9.94;91.96;99346.31;5074689;28;20052;-69
2021/11/26 11:17:36;;;;;;;4.25;2.45;;;;;;;-9.92;91.57;99351.31;5074471;28;20056;-68
2021/11/26 11:20:08;;;;;;;4.57;2.40;;;;;;;-9.95;91.30;99349.63;5074696;28;20090;-69
2021/11/26 11:22:36;;;;;;;5.30;2.55;;;;;;;-9.93;91.87;99354.69;5074910;28;20048;-69
2021/11/26 11:25:05;;;;;;;5.03;2.97;;;;;;;-9.95;91.96;99353.84;5074994;28;20135;-68
2021/11/26 11:27:32;;;;;;;5.75;2.53;;;;;;;-9.94;91.71;99352.97;5074729;28;20071;-68
2021/11/26 11:30:00;;;;;;;6.30;2.70;;;;;;;-9.95;91.73;99361.38;5074826;28;20083;-69
2021/11/26 11:32:27;;;;;;;;;;;;;;;-9.98;91.93;99364.72;5074656;28;20049;-69
2021/11/26 11:34:56;;;;;;;7.30;2.60;;;;;;;-9.95;92.11;99359.69;5074536;28;20022;-68
2021/11/26 11:37:27;;;;;;;5.45;2.78;;;;;;;-10.00;92.13;99371.41;5074300;28;20139;-68
2021/11/26 11:40:00;;;;;;;4.38;2.58;;;;;;;-10.05;92.23;99370.53;5074562;28;20135;-69
2021/11/26 11:42:29;;;;;;;3.22;2.28;;;;;;;-10.05;92.50;99367.19;5074528;28;20520;-69